createdAt,value
2023-05-06T00:01:24.479Z,3.23
2023-05-06T00:03:52.150Z,3.40
2023-05-06T00:06:19.341Z,3.33
2023-05-06T00:08:46.729Z,3.30
2023-05-06T00:11:13.898Z,3.80
2023-05-06T00:13:41.531Z,3.50
2023-05-06T00:16:08.733Z,3.63
2023-05-06T00:18:35.925Z,3.40
2023-05-06T00:21:02.908Z,3.40
2023-05-06T00:23:29.846Z,3.03
2023-05-06T00:25:56.847Z,3.20
2023-05-06T00:28:23.879Z,3.40
2023-05-06T00:30:50.815Z,2.90
2023-05-06T00:33:17.768Z,3.50
2023-05-06T00:35:44.676Z,3.13
2023-05-06T00:38:15.258Z,3.37
2023-05-06T00:40:42.369Z,3.80
2023-05-06T00:43:09.443Z,3.27
2023-05-06T00:45:36.830Z,3.20
2023-05-06T00:48:05.764Z,3.13
2023-05-06T00:50:34.850Z,3.50
2023-05-06T00:53:04.244Z,3.33
2023-05-06T00:55:31.718Z,3.40
2023-05-06T00:57:59.179Z,3.30
2023-05-06T01:00:26.457Z,3.37
2023-05-06T01:02:53.744Z,3.20
2023-05-06T01:05:23.058Z,3.27
2023-05-06T01:08:07.433Z,3.13
2023-05-06T01:10:53.614Z,2.80
2023-05-06T01:14:11.480Z,3.00
2023-05-06T01:16:41.529Z,3.03
2023-05-06T01:19:18.648Z,3.40
2023-05-06T01:21:47.992Z,3.30
2023-05-06T01:24:15.004Z,3.30
2023-05-06T01:26:44.049Z,3.43
2023-05-06T01:29:12.214Z,3.40
2023-05-06T01:31:48.727Z,3.73
2023-05-06T01:34:28.322Z,3.80
2023-05-06T01:37:22.685Z,4.07
2023-05-06T01:39:50.286Z,3.63
2023-05-06T01:42:18.052Z,4.17
2023-05-06T01:44:45.620Z,3.73
2023-05-06T01:47:13.888Z,3.30
2023-05-06T01:49:41.115Z,3.43
2023-05-06T01:52:08.224Z,3.77
2023-05-06T01:54:35.229Z,3.57
2023-05-06T01:57:02.838Z,4.50
2023-05-06T01:59:29.935Z,3.50
2023-05-06T02:01:57.328Z,3.30
2023-05-06T02:04:24.414Z,3.23
2023-05-06T02:06:51.494Z,4.17
2023-05-06T02:09:18.447Z,3.43
2023-05-06T02:11:46.200Z,3.73
2023-05-06T02:14:13.569Z,3.30
2023-05-06T02:16:40.604Z,3.60
2023-05-06T02:19:07.631Z,3.27
2023-05-06T02:21:34.612Z,3.67
2023-05-06T02:24:01.578Z,3.40
2023-05-06T02:26:28.531Z,3.50
2023-05-06T02:28:55.566Z,3.73
2023-05-06T02:31:22.725Z,3.40
2023-05-06T02:33:50.511Z,3.23
2023-05-06T02:36:17.577Z,3.40
2023-05-06T02:38:44.495Z,3.20
2023-05-06T02:41:11.405Z,3.17
2023-05-06T02:43:38.426Z,3.33
2023-05-06T02:46:05.466Z,3.03
2023-05-06T02:48:32.483Z,3.03
2023-05-06T02:51:00.000Z,3.00
2023-05-06T02:53:26.975Z,3.40
2023-05-06T02:55:53.939Z,3.57
2023-05-06T02:58:20.897Z,3.43
2023-05-06T03:00:47.848Z,3.87
2023-05-06T03:03:14.961Z,3.60
2023-05-06T03:05:41.942Z,3.37
2023-05-06T03:08:08.981Z,3.63
2023-05-06T03:10:36.043Z,3.77
2023-05-06T03:13:03.317Z,3.37
2023-05-06T03:15:30.443Z,3.30
2023-05-06T03:17:57.419Z,3.80
2023-05-06T03:20:24.460Z,4.10
2023-05-06T03:22:51.681Z,3.67
2023-05-06T03:25:18.582Z,3.90
2023-05-06T03:27:45.572Z,3.90
2023-05-06T03:30:13.135Z,3.23
2023-05-06T03:32:40.233Z,3.90
2023-05-06T03:35:08.651Z,3.07
2023-05-06T03:37:35.913Z,3.20
2023-05-06T03:40:04.539Z,3.30
2023-05-06T03:42:31.799Z,3.73
2023-05-06T03:44:58.699Z,3.37
2023-05-06T03:47:25.709Z,4.00
2023-05-06T03:49:52.680Z,3.43
2023-05-06T03:52:19.793Z,3.53
2023-05-06T03:54:46.697Z,4.00
2023-05-06T03:57:13.797Z,3.90
2023-05-06T03:59:40.708Z,3.80
2023-05-06T04:02:07.831Z,3.53
2023-05-06T04:04:34.794Z,3.60
2023-05-06T04:07:02.065Z,3.23
2023-05-06T04:09:28.971Z,3.43
2023-05-06T04:11:56.025Z,3.63
2023-05-06T04:14:23.074Z,3.90
2023-05-06T04:16:50.080Z,3.90
2023-05-06T04:19:17.926Z,4.87
2023-05-06T04:21:44.878Z,3.60
2023-05-06T04:24:11.812Z,3.57
2023-05-06T04:26:38.791Z,3.80
2023-05-06T04:29:05.814Z,3.60
2023-05-06T04:31:33.206Z,4.10
2023-05-06T04:34:00.865Z,4.80
2023-05-06T04:36:28.452Z,4.77
2023-05-06T04:38:55.400Z,4.80
2023-05-06T04:41:23.810Z,4.70
2023-05-06T04:43:50.749Z,4.97
2023-05-06T04:46:17.722Z,5.33
2023-05-06T04:48:44.663Z,5.80
2023-05-06T04:51:11.623Z,5.57
2023-05-06T04:53:38.565Z,6.07
2023-05-06T04:56:05.856Z,5.57
2023-05-06T04:58:32.840Z,6.40
2023-05-06T05:01:06.510Z,6.73
2023-05-06T05:03:33.620Z,5.97
2023-05-06T05:06:00.644Z,6.57
2023-05-06T05:08:27.637Z,6.27
2023-05-06T05:10:54.589Z,5.30
2023-05-06T05:13:21.647Z,6.27
2023-05-06T05:15:48.576Z,5.40
2023-05-06T05:18:15.541Z,5.77
2023-05-06T05:20:42.510Z,5.60
2023-05-06T05:23:09.463Z,6.17
2023-05-06T05:25:36.496Z,5.40
2023-05-06T05:28:04.041Z,5.73
2023-05-06T05:30:31.000Z,5.53
2023-05-06T05:32:57.988Z,5.97
2023-05-06T05:35:25.063Z,5.90
2023-05-06T05:37:52.000Z,5.87
2023-05-06T05:40:18.970Z,6.20
2023-05-06T05:42:46.109Z,6.33
2023-05-06T05:45:13.084Z,5.63
2023-05-06T05:47:40.086Z,5.97
2023-05-06T05:50:08.145Z,6.30
2023-05-06T05:52:35.125Z,6.13
2023-05-06T05:55:02.085Z,6.73
2023-05-06T05:57:29.163Z,6.30
2023-05-06T05:59:56.305Z,6.17
2023-05-06T06:02:23.673Z,6.67
2023-05-06T06:04:50.765Z,6.37
2023-05-06T06:07:17.984Z,6.18
2023-05-06T06:09:46.843Z,5.75
2023-05-06T06:12:14.237Z,5.60
2023-05-06T06:14:41.378Z,5.20
2023-05-06T06:17:08.368Z,5.18
2023-05-06T06:19:35.666Z,5.00
2023-05-06T06:22:02.637Z,5.28
2023-05-06T06:24:29.589Z,5.55
2023-05-06T06:26:56.572Z,5.93
2023-05-06T06:29:23.504Z,4.95
2023-05-06T06:31:50.495Z,4.93
2023-05-06T06:34:20.158Z,5.28
2023-05-06T06:36:47.180Z,5.20
2023-05-06T06:39:14.447Z,4.68
2023-05-06T06:41:41.776Z,5.07
2023-05-06T06:44:08.776Z,4.88
2023-05-06T06:46:35.703Z,4.82
2023-05-06T06:49:02.725Z,5.35
2023-05-06T06:51:29.755Z,4.88
2023-05-06T06:53:56.902Z,5.15
2023-05-06T06:56:23.959Z,5.07
2023-05-06T06:58:53.033Z,4.97
2023-05-06T07:01:20.522Z,5.78
2023-05-06T07:03:47.539Z,6.18
2023-05-06T07:06:14.530Z,5.97
2023-05-06T07:08:41.535Z,6.18
2023-05-06T07:11:08.454Z,5.63
2023-05-06T07:13:36.602Z,6.03
2023-05-06T07:16:03.752Z,4.95
2023-05-06T07:18:30.751Z,5.18
2023-05-06T07:20:57.819Z,5.20
2023-05-06T07:23:24.806Z,5.75
2023-05-06T07:25:51.745Z,5.07
2023-05-06T07:28:18.737Z,5.20
2023-05-06T07:30:46.080Z,5.65
2023-05-06T07:33:13.068Z,4.55
2023-05-06T07:35:40.010Z,6.28
2023-05-06T07:38:06.901Z,5.70
2023-05-06T07:40:34.104Z,5.88
2023-05-06T07:43:02.968Z,6.30
2023-05-06T07:45:29.900Z,5.97
2023-05-06T07:47:57.255Z,5.90
2023-05-06T07:50:24.282Z,5.93
2023-05-06T07:52:51.255Z,5.85
2023-05-06T07:55:18.185Z,5.50
2023-05-06T07:57:45.100Z,5.10
2023-05-06T08:00:12.912Z,4.35
2023-05-06T08:02:44.321Z,4.05
2023-05-06T08:05:11.811Z,4.03
2023-05-06T08:07:41.783Z,3.70
2023-05-06T08:10:09.942Z,4.20
2023-05-06T08:12:38.220Z,4.28
2023-05-06T08:15:06.396Z,3.85
2023-05-06T08:17:33.362Z,4.55
2023-05-06T08:20:00.448Z,4.15
2023-05-06T08:22:27.370Z,3.90
2023-05-06T08:24:55.114Z,3.83
2023-05-06T08:27:22.054Z,4.15
2023-05-06T08:29:48.986Z,4.75
2023-05-06T08:32:16.128Z,3.97
2023-05-06T08:34:43.029Z,4.40
2023-05-06T08:37:10.474Z,3.90
2023-05-06T08:39:37.781Z,4.32
2023-05-06T08:42:05.952Z,4.53
2023-05-06T08:44:33.685Z,4.97
2023-05-06T08:47:00.737Z,4.70
2023-05-06T08:49:27.938Z,4.40
2023-05-06T08:51:55.424Z,4.90
2023-05-06T08:54:26.639Z,4.45
2023-05-06T08:56:54.737Z,4.03
2023-05-06T08:59:25.991Z,3.92
2023-05-06T09:01:53.505Z,3.85
2023-05-06T09:04:20.773Z,3.83
2023-05-06T09:06:47.797Z,3.65
2023-05-06T09:09:15.056Z,3.53
2023-05-06T09:11:42.132Z,3.20
2023-05-06T09:14:16.709Z,3.50
2023-05-06T09:16:46.887Z,3.00
2023-05-06T09:19:16.276Z,3.65
2023-05-06T09:21:49.297Z,3.30
2023-05-06T09:24:17.691Z,3.85
2023-05-06T09:26:46.119Z,3.67
2023-05-06T09:29:13.693Z,4.28
2023-05-06T09:31:46.109Z,4.30
2023-05-06T09:34:15.009Z,3.90
2023-05-06T09:36:42.013Z,3.65
2023-05-06T09:39:09.993Z,3.75
2023-05-06T09:41:37.618Z,3.60
2023-05-06T09:44:05.693Z,3.85
2023-05-06T09:46:33.097Z,3.58
2023-05-06T09:49:00.597Z,3.58
2023-05-06T09:51:30.994Z,3.60
2023-05-06T09:53:59.434Z,3.75
2023-05-06T09:56:27.097Z,3.65
2023-05-06T09:58:56.157Z,3.90
2023-05-06T10:01:35.471Z,3.65
2023-05-06T10:04:09.789Z,3.20
2023-05-06T10:06:40.592Z,3.08
2023-05-06T10:09:09.313Z,3.55
2023-05-06T10:11:36.992Z,3.38
2023-05-06T10:14:05.153Z,3.90
2023-05-06T10:16:37.870Z,2.72
2023-05-06T10:19:08.040Z,3.05
2023-05-06T10:21:39.666Z,3.03
2023-05-06T10:24:11.779Z,2.70
2023-05-06T10:26:40.990Z,2.70
2023-05-06T10:29:11.181Z,2.25
2023-05-06T10:31:49.635Z,2.78
2023-05-06T10:34:19.945Z,2.45
2023-05-06T10:36:50.451Z,2.50
2023-05-06T10:39:17.767Z,2.40
2023-05-06T10:41:44.786Z,2.40
2023-05-06T10:44:12.908Z,2.20
2023-05-06T10:47:00.803Z,2.35
2023-05-06T10:49:27.954Z,2.40
2023-05-06T10:52:21.056Z,1.50
2023-05-06T10:54:50.931Z,1.80
2023-05-06T10:57:18.440Z,2.42
2023-05-06T10:59:47.863Z,2.67
2023-05-06T11:02:19.894Z,2.03
2023-05-06T11:05:01.851Z,2.10
2023-05-06T11:07:28.861Z,2.25
2023-05-06T11:10:08.175Z,2.38
2023-05-06T11:12:46.222Z,2.60
2023-05-06T11:15:39.531Z,2.30
2023-05-06T11:18:24.735Z,2.03
2023-05-06T11:21:34.944Z,2.28
2023-05-06T11:24:01.790Z,2.55
2023-05-06T11:26:28.692Z,2.85
2023-05-06T11:28:56.024Z,2.25
2023-05-06T11:31:23.188Z,2.40
2023-05-06T11:33:55.101Z,2.25
2023-05-06T11:36:22.146Z,2.60
2023-05-06T11:38:52.568Z,2.08
2023-05-06T11:41:21.934Z,2.20
2023-05-06T11:43:50.658Z,2.50
2023-05-06T11:46:22.940Z,2.83
2023-05-06T11:48:50.843Z,2.60
2023-05-06T11:51:24.806Z,2.75
2023-05-06T11:53:54.131Z,2.45
2023-05-06T11:56:21.176Z,2.75
2023-05-06T11:58:48.303Z,2.33
2023-05-06T12:01:15.364Z,2.67
2023-05-06T12:03:42.481Z,2.63
2023-05-06T12:06:09.650Z,2.40
2023-05-06T12:08:37.529Z,2.13
2023-05-06T12:11:08.217Z,6.68
2023-05-06T12:13:36.982Z,2.55
2023-05-06T12:16:06.026Z,2.65
2023-05-06T12:18:33.322Z,2.30
2023-05-06T12:21:06.000Z,2.72
2023-05-06T12:23:33.241Z,2.95
2023-05-06T12:26:06.224Z,2.83
2023-05-06T12:28:36.223Z,3.22
2023-05-06T12:31:22.870Z,3.00
2023-05-06T12:33:50.702Z,3.35
2023-05-06T12:36:18.851Z,3.13
2023-05-06T12:38:57.448Z,3.20
2023-05-06T12:41:37.211Z,3.40
2023-05-06T12:44:37.729Z,2.65
2023-05-06T12:47:26.783Z,2.80
2023-05-06T12:49:59.290Z,2.65
2023-05-06T12:52:29.624Z,2.50
2023-05-06T12:54:57.660Z,2.92
2023-05-06T12:57:24.735Z,2.50
2023-05-06T12:59:51.701Z,2.28
2023-05-06T13:02:19.128Z,2.83
2023-05-06T13:04:47.131Z,2.65
2023-05-06T13:07:14.187Z,2.65
2023-05-06T13:09:41.189Z,2.22
2023-05-06T13:12:08.252Z,1.90
2023-05-06T13:14:36.846Z,1.88
2023-05-06T13:17:06.761Z,2.35
2023-05-06T13:19:34.277Z,2.40
2023-05-06T13:22:01.855Z,2.50
2023-05-06T13:24:29.856Z,2.33
2023-05-06T13:26:57.290Z,1.98
2023-05-06T13:29:24.684Z,2.15
2023-05-06T13:31:51.837Z,2.20
2023-05-06T13:34:19.005Z,2.30
2023-05-06T13:36:46.852Z,2.03
2023-05-06T13:39:13.901Z,2.10
2023-05-06T13:41:40.977Z,2.22
2023-05-06T13:44:07.982Z,2.17
2023-05-06T13:46:35.012Z,2.42
2023-05-06T13:49:01.997Z,2.03
2023-05-06T13:51:32.623Z,2.50
2023-05-06T13:53:59.541Z,2.00
2023-05-06T13:56:26.947Z,1.92
2023-05-06T13:58:54.135Z,2.20
2023-05-06T14:01:21.933Z,1.60
2023-05-06T14:03:49.115Z,2.20
2023-05-06T14:06:16.360Z,2.03
2023-05-06T14:08:43.537Z,1.80
2023-05-06T14:11:10.553Z,1.83
2023-05-06T14:13:39.050Z,1.70
2023-05-06T14:16:06.510Z,1.95
2023-05-06T14:18:33.904Z,1.52
2023-05-06T14:21:00.944Z,1.65
2023-05-06T14:23:27.916Z,1.80
2023-05-06T14:25:54.878Z,1.98
2023-05-06T14:28:21.864Z,2.03
2023-05-06T14:30:50.859Z,1.75
2023-05-06T14:33:17.782Z,2.13
2023-05-06T14:35:46.119Z,1.80
2023-05-06T14:38:13.196Z,1.80
2023-05-06T14:40:40.272Z,1.90
2023-05-06T14:43:07.927Z,1.85
2023-05-06T14:45:35.465Z,1.75
2023-05-06T14:48:04.145Z,2.20
2023-05-06T14:50:31.413Z,2.03
2023-05-06T14:52:58.437Z,2.00
2023-05-06T14:55:25.903Z,2.33
2023-05-06T14:57:53.028Z,2.25
2023-05-06T15:00:20.610Z,1.73
2023-05-06T15:02:47.723Z,2.22
2023-05-06T15:05:15.141Z,2.15
2023-05-06T15:07:42.359Z,2.00
2023-05-06T15:10:09.747Z,2.00
2023-05-06T15:12:39.436Z,2.00
2023-05-06T15:15:07.809Z,1.83
2023-05-06T15:17:34.831Z,1.80
2023-05-06T15:20:01.991Z,1.67
2023-05-06T15:22:29.007Z,2.05
2023-05-06T15:24:56.060Z,2.17
2023-05-06T15:27:23.123Z,2.10
2023-05-06T15:29:50.218Z,1.90
2023-05-06T15:32:17.153Z,1.98
2023-05-06T15:34:44.123Z,1.88
2023-05-06T15:37:11.174Z,1.90
2023-05-06T15:39:38.295Z,5.32
2023-05-06T15:42:05.610Z,2.92
2023-05-06T15:44:33.946Z,2.10
2023-05-06T15:47:01.172Z,2.20
2023-05-06T15:52:00.768Z,2.85
2023-05-06T15:54:28.994Z,1.90
2023-05-06T15:56:56.811Z,2.33
2023-05-06T15:59:24.000Z,2.05
2023-05-06T16:02:25.329Z,2.95
2023-05-06T16:04:38.100Z,2.10
2023-05-06T16:07:05.268Z,2.35
2023-05-06T16:09:32.172Z,2.28
2023-05-06T16:11:59.159Z,2.42
2023-05-06T16:14:26.201Z,2.45
2023-05-06T16:16:53.325Z,2.40
2023-05-06T16:19:20.345Z,2.22
2023-05-06T16:21:48.358Z,2.33
2023-05-06T16:24:16.032Z,2.50
2023-05-06T16:26:42.954Z,2.17
2023-05-06T16:29:10.249Z,2.10
2023-05-06T16:31:37.788Z,2.60
2023-05-06T16:34:05.012Z,2.15
2023-05-06T16:36:32.024Z,2.20
2023-05-06T16:38:58.981Z,2.05
2023-05-06T16:41:25.972Z,2.33
2023-05-06T16:43:52.962Z,2.17
2023-05-06T16:46:21.376Z,1.98
2023-05-06T16:48:50.013Z,3.63
2023-05-06T16:51:17.098Z,2.50
2023-05-06T16:53:44.066Z,2.20
2023-05-06T16:56:11.149Z,2.30
2023-05-06T16:58:38.176Z,2.85
2023-05-06T17:01:08.085Z,1.90
2023-05-06T17:03:38.562Z,2.10
2023-05-06T17:06:05.870Z,2.25
2023-05-06T17:08:36.271Z,2.20
2023-05-06T17:11:06.936Z,2.17
2023-05-06T17:13:34.700Z,2.20
2023-05-06T17:16:01.769Z,2.63
2023-05-06T17:18:28.813Z,2.58
2023-05-06T17:20:57.161Z,2.28
2023-05-06T17:23:24.819Z,2.35
2023-05-06T17:25:52.069Z,2.10
2023-05-06T17:28:19.201Z,1.85
2023-05-06T17:30:46.682Z,2.13
2023-05-06T17:33:13.898Z,2.03
2023-05-06T17:35:40.876Z,1.90
2023-05-06T17:38:09.555Z,2.60
2023-05-06T17:40:36.480Z,2.65
2023-05-06T17:43:03.665Z,2.20
2023-05-06T17:45:30.897Z,1.80
2023-05-06T17:47:57.934Z,2.00
2023-05-06T17:50:24.994Z,2.33
2023-05-06T17:52:54.464Z,2.33
2023-05-06T17:55:21.981Z,1.65
2023-05-06T17:57:50.277Z,2.08
2023-05-06T18:00:17.549Z,2.10
2023-05-06T18:02:45.302Z,2.00
2023-05-06T18:05:13.521Z,2.47
2023-05-06T18:07:41.035Z,2.95
2023-05-06T18:10:08.938Z,2.30
2023-05-06T18:12:36.045Z,1.95
2023-05-06T18:15:03.282Z,2.40
2023-05-06T18:17:30.333Z,2.58
2023-05-06T18:19:57.316Z,2.80
2023-05-06T18:22:24.434Z,2.58
2023-05-06T18:24:55.340Z,2.65
2023-05-06T18:27:23.112Z,2.00
2023-05-06T18:29:50.154Z,2.15
2023-05-06T18:32:20.064Z,2.22
2023-05-06T18:34:47.009Z,3.53
2023-05-06T18:37:13.970Z,3.10
2023-05-06T18:39:42.632Z,2.70
2023-05-06T18:42:09.926Z,2.60
2023-05-06T18:44:37.479Z,2.25
2023-05-06T18:47:04.615Z,2.13
2023-05-06T18:49:31.738Z,2.65
2023-05-06T18:51:58.930Z,3.63
2023-05-06T18:54:25.963Z,3.53
2023-05-06T18:56:52.963Z,4.97
2023-05-06T18:59:20.277Z,4.40
2023-05-06T19:01:47.336Z,3.28
2023-05-06T19:04:14.771Z,2.55
2023-05-06T19:06:42.209Z,2.47
2023-05-06T19:09:09.204Z,2.67
2023-05-06T19:11:36.194Z,2.05
2023-05-06T19:14:03.599Z,2.65
2023-05-06T19:16:30.587Z,3.03
2023-05-06T19:18:57.593Z,3.35
2023-05-06T19:21:24.655Z,3.35
2023-05-06T19:23:53.132Z,3.28
2023-05-06T19:26:20.135Z,3.20
2023-05-06T19:28:47.099Z,3.00
2023-05-06T19:31:14.134Z,3.35
2023-05-06T19:33:43.078Z,2.88
2023-05-06T19:36:10.958Z,3.17
2023-05-06T19:38:38.386Z,3.30
2023-05-06T19:41:06.176Z,3.13
2023-05-06T19:43:33.270Z,2.78
2023-05-06T19:46:00.451Z,2.70
2023-05-06T19:48:27.449Z,3.00
2023-05-06T19:50:54.508Z,2.38
2023-05-06T19:53:22.863Z,2.90
2023-05-06T19:55:50.029Z,2.65
2023-05-06T19:58:18.880Z,2.45
2023-05-06T20:00:45.902Z,2.28
2023-05-06T20:03:13.078Z,2.15
2023-05-06T20:05:40.147Z,2.33
2023-05-06T20:08:10.944Z,3.10
2023-05-06T20:10:38.723Z,3.33
2023-05-06T20:13:07.020Z,2.80
2023-05-06T20:15:35.462Z,3.55
2023-05-06T20:18:02.499Z,3.17
2023-05-06T20:20:34.493Z,4.15
2023-05-06T20:23:02.375Z,3.33
2023-05-06T20:25:30.257Z,4.00
2023-05-06T20:27:58.406Z,3.80
2023-05-06T20:30:26.803Z,3.10
2023-05-06T20:32:54.032Z,3.35
2023-05-06T20:35:21.231Z,3.08
2023-05-06T20:37:48.208Z,2.95
2023-05-06T20:40:15.296Z,3.95
2023-05-06T20:42:42.316Z,3.60
2023-05-06T20:45:09.904Z,6.97
2023-05-06T20:47:37.197Z,5.03
2023-05-06T20:50:04.795Z,4.32
2023-05-06T20:52:33.942Z,3.53
2023-05-06T20:55:01.701Z,3.25
2023-05-06T20:57:28.709Z,3.28
2023-05-06T20:59:56.154Z,3.05
2023-05-06T21:02:23.210Z,2.90
2023-05-06T21:04:50.972Z,3.50
2023-05-06T21:07:18.093Z,3.40
2023-05-06T21:09:45.747Z,3.80
2023-05-06T21:12:12.858Z,4.15
2023-05-06T21:14:39.909Z,4.18
2023-05-06T21:17:08.411Z,3.65
2023-05-06T21:19:35.689Z,3.92
2023-05-06T21:22:02.902Z,3.80
2023-05-06T21:24:31.025Z,3.85
2023-05-06T21:26:58.352Z,3.78
2023-05-06T21:29:25.480Z,4.10
2023-05-06T21:31:52.398Z,3.05
2023-05-06T21:34:19.415Z,3.28
2023-05-06T21:36:46.376Z,3.67
2023-05-06T21:39:14.475Z,3.90
2023-05-06T21:41:41.707Z,4.50
2023-05-06T21:44:09.395Z,4.57
2023-05-06T21:46:37.795Z,4.65
2023-05-06T21:49:05.210Z,4.05
2023-05-06T21:51:34.969Z,4.85
2023-05-06T21:54:02.959Z,4.15
2023-05-06T21:56:30.087Z,5.18
2023-05-06T21:58:57.021Z,4.63
2023-05-06T22:01:29.183Z,5.57
2023-05-06T22:03:56.535Z,4.90
2023-05-06T22:06:23.820Z,5.32
2023-05-06T22:08:51.424Z,4.97
2023-05-06T22:11:18.534Z,4.63
2023-05-06T22:13:45.689Z,5.00
2023-05-06T22:16:13.170Z,5.00
2023-05-06T22:18:41.581Z,5.05
2023-05-06T22:21:09.674Z,5.40
2023-05-06T22:23:36.953Z,5.82
2023-05-06T22:26:04.252Z,5.45
2023-05-06T22:28:31.245Z,5.68
2023-05-06T22:30:58.213Z,5.18
2023-05-06T22:33:27.062Z,5.15
2023-05-06T22:35:55.384Z,5.00
2023-05-06T22:38:22.373Z,5.03
2023-05-06T22:40:49.464Z,5.18
2023-05-06T22:43:16.409Z,5.22
2023-05-06T22:45:43.529Z,6.03
2023-05-06T22:48:11.005Z,5.38
2023-05-06T22:50:38.178Z,5.55
2023-05-06T22:53:14.501Z,6.00
2023-05-06T22:55:42.894Z,5.90
2023-05-06T22:58:09.968Z,5.47
2023-05-06T23:00:37.266Z,5.38
2023-05-06T23:03:05.322Z,4.90
2023-05-06T23:05:32.278Z,4.68
2023-05-06T23:07:59.235Z,5.13
2023-05-06T23:10:26.819Z,6.07
2023-05-06T23:12:53.817Z,6.03
2023-05-06T23:15:20.910Z,6.50
2023-05-06T23:17:47.930Z,6.18
2023-05-06T23:20:17.223Z,6.13
2023-05-06T23:22:44.183Z,5.85
2023-05-06T23:25:12.093Z,5.75
2023-05-06T23:27:40.607Z,5.07
2023-05-06T23:30:09.184Z,5.60
2023-05-06T23:32:37.291Z,5.70
2023-05-06T23:35:04.898Z,5.28
2023-05-06T23:37:31.849Z,5.20
2023-05-06T23:39:58.802Z,4.72
2023-05-06T23:42:26.297Z,6.00
2023-05-06T23:44:53.612Z,5.20
2023-05-06T23:47:20.692Z,5.88
2023-05-06T23:49:47.648Z,5.53
2023-05-06T23:52:14.637Z,5.47
2023-05-06T23:54:41.650Z,4.78
2023-05-06T23:57:08.625Z,5.25
2023-05-06T23:59:35.728Z,5.65
